createdAt,value
2019-02-02T00:02:43.180Z,13.58
2019-02-02T00:07:49.275Z,13.17
2019-02-02T00:12:55.447Z,12.53
2019-02-02T00:18:01.457Z,12.46
2019-02-02T00:23:07.410Z,12.47
2019-02-02T00:28:14.082Z,13.42
2019-02-02T00:33:20.197Z,14.98
2019-02-02T00:38:26.176Z,13.48
2019-02-02T00:43:32.184Z,13.30
2019-02-02T00:48:38.174Z,13.30
2019-02-02T00:53:44.251Z,12.98
2019-02-02T00:58:50.842Z,12.55
2019-02-02T01:03:56.967Z,11.11
2019-02-02T01:09:03.060Z,16.54
2019-02-02T01:14:09.136Z,11.59
2019-02-02T01:19:15.171Z,12.70
2019-02-02T01:24:21.182Z,20.11
2019-02-02T01:29:27.174Z,12.32
2019-02-02T01:34:33.160Z,13.11
2019-02-02T01:39:39.159Z,13.34
2019-02-02T01:44:45.182Z,12.78
2019-02-02T01:49:51.176Z,12.01
2019-02-02T01:54:57.184Z,16.10
2019-02-02T02:00:03.168Z,17.76
2019-02-02T02:05:09.163Z,11.46
2019-02-02T02:10:15.166Z,11.67
2019-02-02T02:15:21.213Z,12.18
2019-02-02T02:20:27.185Z,11.22
2019-02-02T02:25:33.240Z,11.49
2019-02-02T02:30:39.217Z,11.61
2019-02-02T02:35:45.232Z,11.81
2019-02-02T02:40:51.263Z,12.28
2019-02-02T02:45:57.259Z,12.89
2019-02-02T02:51:03.264Z,12.56
2019-02-02T02:56:09.269Z,13.52
2019-02-02T03:01:15.275Z,20.26
2019-02-02T03:06:21.261Z,13.19
2019-02-02T03:11:27.237Z,14.56
2019-02-02T03:16:33.231Z,13.43
2019-02-02T03:21:39.234Z,19.78
2019-02-02T03:26:45.221Z,21.07
2019-02-02T03:31:51.385Z,13.83
2019-02-02T03:36:57.236Z,15.06
2019-02-02T03:42:03.220Z,23.09
2019-02-02T03:47:09.293Z,22.41
2019-02-02T03:52:15.313Z,14.25
2019-02-02T03:57:21.278Z,14.35
2019-02-02T04:02:27.306Z,14.60
2019-02-02T04:07:33.346Z,21.47
2019-02-02T04:12:39.355Z,14.71
2019-02-02T04:17:45.378Z,21.87
2019-02-02T04:22:51.384Z,15.26
2019-02-02T04:27:57.408Z,14.06
2019-02-02T04:33:03.511Z,13.06
2019-02-02T04:38:09.431Z,13.30
2019-02-02T04:43:15.424Z,13.37
2019-02-02T04:48:21.418Z,13.89
2019-02-02T04:53:27.415Z,13.82
2019-02-02T04:58:33.442Z,13.55
2019-02-02T05:03:39.431Z,13.34
2019-02-02T05:08:45.433Z,14.12
2019-02-02T05:13:51.417Z,21.39
2019-02-02T05:18:57.409Z,23.13
2019-02-02T05:24:03.380Z,15.39
2019-02-02T05:29:09.376Z,15.53
2019-02-02T05:34:15.479Z,15.50
2019-02-02T05:39:21.723Z,16.24
2019-02-02T05:44:27.890Z,15.68
2019-02-02T05:49:33.928Z,15.03
2019-02-02T05:54:40.038Z,22.86
2019-02-02T05:59:52.563Z,16.51
2019-02-02T06:04:51.708Z,15.97
2019-02-02T06:09:57.770Z,15.38
2019-02-02T06:15:03.866Z,14.69
2019-02-02T06:20:09.909Z,14.38
2019-02-02T06:25:16.063Z,21.79
2019-02-02T06:30:22.575Z,15.06
2019-02-02T06:35:28.739Z,15.40
2019-02-02T06:40:34.803Z,14.25
2019-02-02T06:45:40.930Z,13.70
2019-02-02T06:50:46.979Z,14.12
2019-02-02T06:55:53.026Z,14.47
2019-02-02T07:00:59.099Z,22.06
2019-02-02T07:06:05.143Z,20.08
2019-02-02T07:11:11.230Z,15.28
2019-02-02T07:16:17.295Z,15.50
2019-02-02T07:21:23.520Z,15.61
2019-02-02T07:26:29.599Z,15.58
2019-02-02T07:31:36.952Z,14.12
2019-02-02T07:36:41.917Z,13.98
2019-02-02T07:41:48.162Z,13.97
2019-02-02T07:46:54.224Z,14.37
2019-02-02T07:52:00.312Z,13.70
2019-02-02T07:57:06.360Z,13.08
2019-02-02T08:02:12.428Z,13.17
2019-02-02T08:07:18.504Z,18.45
2019-02-02T08:12:24.631Z,12.48
2019-02-02T08:17:32.390Z,19.23
2019-02-02T08:22:36.697Z,12.78
2019-02-02T08:27:42.796Z,13.21
2019-02-02T08:32:49.092Z,19.32
2019-02-02T08:37:55.161Z,14.04
2019-02-02T08:43:01.205Z,20.71
2019-02-02T08:48:07.889Z,15.10
2019-02-02T08:53:14.331Z,15.01
2019-02-02T08:58:20.488Z,14.78
2019-02-02T09:03:26.562Z,15.78
2019-02-02T09:08:32.717Z,23.05
2019-02-02T09:13:38.770Z,15.13
2019-02-02T09:18:44.900Z,15.54
2019-02-02T09:23:51.030Z,15.85
2019-02-02T09:28:57.090Z,16.47
2019-02-02T09:34:03.168Z,17.25
2019-02-02T09:39:09.316Z,24.75
2019-02-02T09:44:16.299Z,16.58
2019-02-02T09:49:22.460Z,16.81
2019-02-02T09:54:28.598Z,16.03
2019-02-02T09:59:34.682Z,14.55
2019-02-02T10:04:43.870Z,14.39
2019-02-02T10:09:49.955Z,21.65
2019-02-02T10:14:56.529Z,20.80
2019-02-02T10:20:02.654Z,21.09
2019-02-02T10:25:08.769Z,13.02
2019-02-02T10:30:14.815Z,13.03
2019-02-02T10:35:21.076Z,13.13
2019-02-02T10:40:29.905Z,13.53
2019-02-02T10:45:33.210Z,13.80
2019-02-02T10:50:39.250Z,13.66
2019-02-02T10:55:45.312Z,13.29
2019-02-02T11:00:51.384Z,12.55
2019-02-02T11:05:57.607Z,12.46
2019-02-02T11:11:03.747Z,19.76
2019-02-02T11:16:09.806Z,12.91
2019-02-02T11:21:15.853Z,13.28
2019-02-02T11:26:21.945Z,12.67
2019-02-02T11:31:27.986Z,20.31
2019-02-02T11:36:34.111Z,19.34
2019-02-02T11:41:40.091Z,13.47
2019-02-02T11:46:46.181Z,19.42
2019-02-02T11:51:52.293Z,21.86
2019-02-02T11:56:58.316Z,14.51
2019-02-02T12:02:14.250Z,20.54
2019-02-02T12:07:09.997Z,15.22
2019-02-02T12:12:16.046Z,16.54
2019-02-02T12:17:22.089Z,16.58
2019-02-02T12:22:28.475Z,19.12
2019-02-02T12:27:34.493Z,32.07
2019-02-02T12:32:40.496Z,20.57
2019-02-02T12:37:46.568Z,19.79
2019-02-02T12:42:52.956Z,20.33
2019-02-02T12:47:59.083Z,22.26
2019-02-02T12:53:05.114Z,23.14
2019-02-02T12:58:11.129Z,19.68
2019-02-02T13:03:17.128Z,18.94
2019-02-02T13:08:23.201Z,17.13
2019-02-02T13:13:29.300Z,19.55
2019-02-02T13:18:35.434Z,17.37
2019-02-02T13:23:41.532Z,17.94
2019-02-02T13:28:47.507Z,17.93
2019-02-02T13:33:53.664Z,18.51
2019-02-02T13:38:59.868Z,19.36
2019-02-02T13:44:06.078Z,21.06
2019-02-02T13:49:12.153Z,30.34
2019-02-02T13:54:18.247Z,31.02
2019-02-02T13:59:25.587Z,20.44
2019-02-02T14:04:31.618Z,19.80
2019-02-02T14:09:37.613Z,30.74
2019-02-02T14:14:43.601Z,21.22
2019-02-02T14:19:49.637Z,18.02
2019-02-02T14:24:55.698Z,17.57
2019-02-02T14:30:01.804Z,17.18
2019-02-02T14:41:37.873Z,20.29
2019-02-02T14:45:26.666Z,17.85
2019-02-02T14:50:31.981Z,16.88
2019-02-02T14:55:35.018Z,27.24
2019-02-02T15:00:41.053Z,19.45
2019-02-02T15:05:47.035Z,19.46
2019-02-02T15:10:53.055Z,19.87
2019-02-02T15:15:59.121Z,32.13
2019-02-02T15:21:05.307Z,23.43
2019-02-02T15:26:11.406Z,39.05
2019-02-02T15:31:17.443Z,27.31
2019-02-02T15:36:23.484Z,41.94
2019-02-02T15:41:29.778Z,28.09
2019-02-02T15:46:35.773Z,28.03
2019-02-02T15:51:41.808Z,41.57
2019-02-02T15:56:47.818Z,31.52
2019-02-02T16:01:53.795Z,46.02
2019-02-02T16:06:59.794Z,45.56
2019-02-02T16:12:05.912Z,29.62
2019-02-02T16:17:11.958Z,27.66
2019-02-02T16:22:18.080Z,27.88
2019-02-02T16:27:24.102Z,28.39
2019-02-02T16:32:30.270Z,29.56
2019-02-02T16:37:36.458Z,28.11
2019-02-02T16:42:42.386Z,43.12
2019-02-02T16:47:48.441Z,39.02
2019-02-02T16:52:54.507Z,25.32
2019-02-02T16:58:00.714Z,25.25
2019-02-02T17:03:06.744Z,34.16
2019-02-02T17:08:12.764Z,27.36
2019-02-02T17:13:18.822Z,40.49
2019-02-02T17:18:24.859Z,27.64
2019-02-02T17:23:30.896Z,29.81
2019-02-02T17:28:36.967Z,30.11
2019-02-02T17:33:42.986Z,33.86
2019-02-02T17:38:49.021Z,29.98
2019-02-02T17:43:55.015Z,30.90
2019-02-02T17:49:01.026Z,30.34
2019-02-02T17:54:07.108Z,30.70
2019-02-02T17:59:13.149Z,30.05
2019-02-02T18:04:19.174Z,31.16
2019-02-02T18:09:25.225Z,46.35
2019-02-02T18:14:31.306Z,29.93
2019-02-02T18:19:37.401Z,27.05
2019-02-02T18:24:43.390Z,29.24
2019-02-02T18:29:49.633Z,41.92
2019-02-02T18:34:55.730Z,41.23
2019-02-02T18:40:02.048Z,25.10
2019-02-02T18:45:08.097Z,26.78
2019-02-02T18:50:14.271Z,27.00
2019-02-02T18:55:20.366Z,27.32
2019-02-02T19:00:26.395Z,26.53
2019-02-02T19:05:32.555Z,40.06
2019-02-02T19:10:38.603Z,41.18
2019-02-02T19:15:44.971Z,27.37
2019-02-02T19:20:51.129Z,30.73
2019-02-02T19:25:57.178Z,26.04
2019-02-02T19:31:03.468Z,42.98
2019-02-02T19:36:09.572Z,26.54
2019-02-02T19:41:15.657Z,26.00
2019-02-02T19:46:21.761Z,26.85
2019-02-02T19:51:27.775Z,26.40
2019-02-02T19:56:33.966Z,26.96
2019-02-02T20:01:40.100Z,26.74
2019-02-02T20:06:46.157Z,41.55
2019-02-02T20:11:52.350Z,26.64
2019-02-02T20:16:58.833Z,39.55
2019-02-02T20:22:04.943Z,38.16
2019-02-02T20:27:11.079Z,25.16
2019-02-02T20:32:17.142Z,25.77
2019-02-02T20:37:23.187Z,25.37
2019-02-02T20:42:29.228Z,23.76
2019-02-02T20:47:35.239Z,35.39
2019-02-02T20:52:47.695Z,22.87
2019-02-02T20:57:46.888Z,23.43
2019-02-02T21:02:52.933Z,33.66
2019-02-02T21:07:58.983Z,23.24
2019-02-02T21:13:05.019Z,24.04
2019-02-02T21:18:11.962Z,25.56
2019-02-02T21:23:16.710Z,25.40
2019-02-02T21:28:22.856Z,25.73
2019-02-02T21:33:28.901Z,26.45
2019-02-02T21:38:34.988Z,26.84
2019-02-02T21:43:41.079Z,40.54
2019-02-02T21:48:47.205Z,27.68
2019-02-02T21:53:53.320Z,27.96
2019-02-02T21:58:59.402Z,28.88
2019-02-02T22:04:05.445Z,28.91
2019-02-02T22:09:11.492Z,30.02
2019-02-02T22:14:17.552Z,31.17
2019-02-02T22:19:23.695Z,31.12
2019-02-02T22:24:29.865Z,47.28
2019-02-02T22:29:35.867Z,48.90
2019-02-02T22:34:41.923Z,34.44
2019-02-02T22:39:47.946Z,51.33
2019-02-02T22:44:53.969Z,34.88
2019-02-02T22:49:59.987Z,48.35
2019-02-02T22:55:06.068Z,34.69
2019-02-02T23:00:12.081Z,35.05
2019-02-02T23:05:18.130Z,54.02
2019-02-02T23:10:24.226Z,36.23
2019-02-02T23:15:30.489Z,36.01
2019-02-02T23:20:36.522Z,34.36
2019-02-02T23:25:42.574Z,30.23
2019-02-02T23:30:48.631Z,51.45
2019-02-02T23:35:54.668Z,34.35
2019-02-02T23:41:00.687Z,34.08
2019-02-02T23:46:06.808Z,35.04
2019-02-02T23:51:12.863Z,32.73
2019-02-02T23:56:18.918Z,31.89
